MDT,Max TemperatureF,Mean TemperatureF,Min TemperatureF,Max Dew PointF,MeanDew PointF,Min DewpointF,Max Humidity, Mean Humidity, Min Humidity, Max Sea Level PressureIn, Mean Sea Level PressureIn, Min Sea Level PressureIn, Max VisibilityMiles, Mean VisibilityMiles, Min VisibilityMiles, Max Wind SpeedMPH, Mean Wind SpeedMPH, Max Gust SpeedMPH,PrecipitationIn, CloudCover, Events, WindDirDegrees
2013-3-1,60,38,16,31,24,12,88,62,35,30.32,30.22,30.13,,,,21,5,25,0.00,,,263
2013-3-2,62,47,32,32,30,27,82,56,29,30.14,30.03,29.80,,,,22,8,25,0.00,,,282
2013-3-3,53,41,29,36,31,20,96,71,46,29.79,29.69,29.55,,,,35,9,43,0.10,,,290
2013-3-4,29,16,3,23,13,2,96,82,67,30.52,30.22,29.74,,,,36,19,43,0.16,,,316
2013-3-5,23,7,-9,16,5,-11,95,82,68,30.55,30.43,30.27,,,,14,6,16,0.00,,,101
2013-3-6,29,21,12,23,16,8,88,78,68,30.26,30.05,29.90,,,,18,9,22,0.00,,,95
2013-3-7,42,29,16,30,23,13,96,78,60,30.21,30.06,29.90,,,,18,6,23,0.00,,,338
2013-3-8,37,29,20,32,24,16,92,81,70,30.19,30.09,29.99,,,,15,7,18,0.00,,,72
2013-3-9,41,30,18,31,23,16,100,75,50,30.33,30.15,29.98,,,,25,10,30,0.00,,,315
2013-3-10,52,34,16,28,22,13,92,62,32,30.33,30.16,29.95,,,,14,5,18,0.00,,,275
2013-3-11,41,31,21,26,20,15,78,59,40,30.34,30.12,29.94,,,,37,18,48,0.00,,,311
2013-3-12,42,27,12,21,16,10,88,63,38,30.43,30.29,30.07,,,,18,7,22,0.00,,,162
2013-3-13,68,48,28,35,29,21,78,52,26,30.08,30.02,29.94,,,,26,9,32,0.00,,,290
2013-3-14,68,48,28,39,32,26,92,60,28,30.12,30.06,29.94,,,,24,9,29,0.00,,,323
2013-3-15,55,39,23,36,28,18,100,73,45,30.22,30.00,29.88,,,,29,11,35,0.00,,,358
2013-3-16,27,24,20,22,17,14,88,80,71,30.23,30.11,29.86,,,,18,9,25,0.07,,,89
2013-3-17,32,20,7,29,19,2,92,79,66,30.06,29.74,29.52,,,,38,16,44,0.30,,,344
2013-3-18,34,12,-10,24,9,-12,92,78,63,30.15,30.06,29.94,,,,21,6,24,0.00,,,255
2013-3-19,30,19,8,16,9,1,92,71,49,30.47,30.34,30.07,,,,24,7,30,0.00,,,43
2013-3-20,48,33,18,23,18,12,77,57,37,30.36,29.95,29.67,,,,24,12,32,0.00,,,120
2013-3-21,37,34,30,34,25,15,92,70,47,29.90,29.75,29.60,,,,18,7,23,0.10,,,86
2013-3-22,30,25,20,28,19,14,92,78,63,30.25,30.06,29.91,,,,22,14,28,0.01,,,330
2013-3-23,25,20,15,16,12,8,88,73,57,30.41,30.35,30.26,,,,23,15,28,0.00,,,326
2013-3-24,25,18,10,12,10,5,88,72,55,30.49,30.46,30.41,,,,14,7,17,0.00,,,343
2013-3-25,45,27,8,22,14,4,84,56,28,30.47,30.30,30.12,,,,20,7,25,0.00,,,160
2013-3-26,47,32,16,23,19,13,92,62,31,30.14,30.08,30.04,,,,13,4,18,0.00,,,26
2013-3-27,56,36,16,31,23,13,92,60,27,30.13,30.09,30.04,,,,17,6,21,0.00,,,90
2013-3-28,60,41,22,34,27,19,92,60,27,30.16,30.11,30.07,,,,13,5,16,0.00,,,84
2013-3-29,62,46,29,36,32,26,89,60,30,30.11,30.05,30.01,,,,23,8,28,0.00,,,313
2013-3-30,56,41,25,32,28,24,92,64,35,30.20,30.15,30.12,,,,25,10,32,0.00,,,320
2013-3-31,46,34,22,29,25,18,84,64,44,30.27,30.16,30.00,,,,17,9,21,0.00,,,70